Aérodrome :
LOGIN :

S'inscrire | Disclaimer

   EN    FR    IT 

 










Légende :    VFR   VFR Marginal   IFR   IFR Intensif   IFR Très Intensif
Visi : 
Plafond : 
>= 8 km
>= 3000ft
5 à 8 km
1000 à 3000 ft
1500m à 5 km
500 à 1000 ft
800 à 1500m
200 à 500 ft
< 800m
< 200 ft
Symboles :   Orages  Brouillard  Fortes neiges  Fortes précipitations  Vent > 20 kt
SIGMETs :   Divers  Orages  Givrage  Turbulence  Onde Orograph.  Cendres Volcan.






- Altitude de l'aérodrome : 481 ft
- Code IATA : DNK


UKDD - Dnipropetrovs'k

DERNIER METAR :
  • 250700Z 27007MPS CAVOK M02/M05 Q1015 R26/710170 NOSIG

METARs EXPIRÉS :
  • 250630Z 27007MPS CAVOK M02/M06 Q1015 R26/710170 NOSIG
  • 250600Z 26006MPS CAVOK M03/M06 Q1014 R26/710170 NOSIG
  • 250530Z 26006MPS CAVOK M03/M06 Q1014 R26/710170 NOSIG
  • 250500Z 26006MPS CAVOK M03/M06 Q1014 R26/710170 NOSIG

TAF TAF UKDD
Valide du 25 à 06h jusqu'au 26 à 06h UTC


250502Z 2506/2606 25005G10MPS 9999 BKN010 TX03/2512Z TNM03/2506Z
TEMPO 2506/2518 26007G12MPS



MET'MAP, la Météo Aéronautique d'un coup d'oeil ! - Copyright ORBIFLY Décembre 2007 - Disclaimer

ORBIFLY MET'MAP TEAM :

Programmation & Développement : Alexandra Zaïnal
Sur une idée originale de : Baudouin d'Aumeries
Assistance à la programmation : Marc-Olivier Méhu
Soutien technique & logistique : Manuel Goepfert

Contact : metmap@orbifly.com




SOURCES & CREDITS :

   NOAA